sensor_id;sensor_type;location;lat;lon;timestamp;pressure;altitude;pressure_sealevel;temperature;humidity
22333;BME280;11334;36.986;-121.936;2022-08-19T00:01:35;100918.34;;;29.93;38.58
22333;BME280;11334;36.986;-121.936;2022-08-19T00:04:04;100916.94;;;30.21;37.79
22333;BME280;11334;36.986;-121.936;2022-08-19T00:06:31;100915.78;;;30.31;37.45
22333;BME280;11334;36.986;-121.936;2022-08-19T00:08:59;100918.47;;;30.41;37.08
22333;BME280;11334;36.986;-121.936;2022-08-19T00:11:28;100910.13;;;30.66;36.73
22333;BME280;11334;36.986;-121.936;2022-08-19T00:13:55;100912.25;;;30.79;36.52
22333;BME280;11334;36.986;-121.936;2022-08-19T00:16:23;100903.50;;;30.82;36.55
22333;BME280;11334;36.986;-121.936;2022-08-19T00:18:49;100916.28;;;30.91;36.60
22333;BME280;11334;36.986;-121.936;2022-08-19T00:21:16;100918.31;;;31.14;36.16
22333;BME280;11334;36.986;-121.936;2022-08-19T00:23:43;100906.44;;;31.28;36.13
22333;BME280;11334;36.986;-121.936;2022-08-19T00:26:10;100905.75;;;31.46;36.03
22333;BME280;11334;36.986;-121.936;2022-08-19T00:28:37;100904.91;;;31.73;34.90
22333;BME280;11334;36.986;-121.936;2022-08-19T00:31:05;100901.63;;;31.76;34.93
22333;BME280;11334;36.986;-121.936;2022-08-19T00:33:32;100904.94;;;31.96;34.81
22333;BME280;11334;36.986;-121.936;2022-08-19T00:36:04;100889.03;;;31.98;34.43
22333;BME280;11334;36.986;-121.936;2022-08-19T00:38:31;100899.56;;;32.10;34.68
22333;BME280;11334;36.986;-121.936;2022-08-19T00:40:57;100896.31;;;32.08;34.56
22333;BME280;11334;36.986;-121.936;2022-08-19T00:43:26;100885.50;;;32.39;34.49
22333;BME280;11334;36.986;-121.936;2022-08-19T00:45:53;100887.00;;;32.50;34.00
22333;BME280;11334;36.986;-121.936;2022-08-19T00:48:20;100893.75;;;32.76;33.68
22333;BME280;11334;36.986;-121.936;2022-08-19T00:50:48;100902.44;;;33.19;32.62
22333;BME280;11334;36.986;-121.936;2022-08-19T00:53:16;100892.56;;;33.49;32.28
22333;BME280;11334;36.986;-121.936;2022-08-19T00:55:46;100893.75;;;33.75;32.03
22333;BME280;11334;36.986;-121.936;2022-08-19T00:58:16;100896.72;;;33.92;32.22
22333;BME280;11334;36.986;-121.936;2022-08-19T01:00:44;100886.34;;;34.29;31.76
22333;BME280;11334;36.986;-121.936;2022-08-19T01:03:14;100889.13;;;34.64;30.94
22333;BME280;11334;36.986;-121.936;2022-08-19T01:05:43;100882.44;;;34.91;30.97
22333;BME280;11334;36.986;-121.936;2022-08-19T01:08:10;100881.28;;;34.71;31.02
22333;BME280;11334;36.986;-121.936;2022-08-19T01:10:40;100881.56;;;35.47;29.54
22333;BME280;11334;36.986;-121.936;2022-08-19T01:13:10;100875.56;;;35.67;29.21
22333;BME280;11334;36.986;-121.936;2022-08-19T01:15:43;100876.41;;;36.14;28.88
22333;BME280;11334;36.986;-121.936;2022-08-19T01:18:13;100870.03;;;36.05;29.07
22333;BME280;11334;36.986;-121.936;2022-08-19T01:20:41;100874.38;;;36.45;28.12
22333;BME280;11334;36.986;-121.936;2022-08-19T01:23:08;100870.53;;;36.63;27.91
22333;BME280;11334;36.986;-121.936;2022-08-19T01:25:50;100876.56;;;37.06;27.96
22333;BME280;11334;36.986;-121.936;2022-08-19T01:28:23;100873.97;;;36.85;27.44
22333;BME280;11334;36.986;-121.936;2022-08-19T01:30:52;100875.41;;;37.16;27.54
22333;BME280;11334;36.986;-121.936;2022-08-19T01:33:20;100878.50;;;37.23;27.72
22333;BME280;11334;36.986;-121.936;2022-08-19T01:35:47;100879.63;;;37.47;26.89
22333;BME280;11334;36.986;-121.936;2022-08-19T01:38:26;100882.56;;;37.42;26.82
22333;BME280;11334;36.986;-121.936;2022-08-19T01:40:57;100883.88;;;37.44;27.22
22333;BME280;11334;36.986;-121.936;2022-08-19T01:43:24;100872.31;;;37.26;27.40
22333;BME280;11334;36.986;-121.936;2022-08-19T01:45:50;100878.34;;;37.28;27.43
22333;BME280;11334;36.986;-121.936;2022-08-19T01:48:16;100879.31;;;37.31;26.68
22333;BME280;11334;36.986;-121.936;2022-08-19T01:50:43;100870.22;;;37.14;27.39
22333;BME280;11334;36.986;-121.936;2022-08-19T01:53:11;100877.69;;;36.64;27.37
22333;BME280;11334;36.986;-121.936;2022-08-19T01:55:39;100866.41;;;35.88;28.73
22333;BME280;11334;36.986;-121.936;2022-08-19T01:58:10;100867.31;;;34.67;30.10
22333;BME280;11334;36.986;-121.936;2022-08-19T02:00:37;100872.59;;;33.44;31.71
22333;BME280;11334;36.986;-121.936;2022-08-19T02:03:03;100869.59;;;32.36;33.40
22333;BME280;11334;36.986;-121.936;2022-08-19T02:05:29;100866.88;;;31.39;34.47
22333;BME280;11334;36.986;-121.936;2022-08-19T02:07:56;100869.78;;;30.38;36.32
22333;BME280;11334;36.986;-121.936;2022-08-19T02:10:23;100873.56;;;29.75;37.29
22333;BME280;11334;36.986;-121.936;2022-08-19T02:12:50;100885.03;;;28.78;39.12
22333;BME280;11334;36.986;-121.936;2022-08-19T02:15:17;100880.53;;;28.23;40.46
22333;BME280;11334;36.986;-121.936;2022-08-19T02:17:45;100874.09;;;27.47;41.90
22333;BME280;11334;36.986;-121.936;2022-08-19T02:20:12;100882.25;;;27.11;42.80
22333;BME280;11334;36.986;-121.936;2022-08-19T02:22:40;100882.06;;;26.66;43.66
22333;BME280;11334;36.986;-121.936;2022-08-19T02:25:13;100877.88;;;26.11;44.80
22333;BME280;11334;36.986;-121.936;2022-08-19T02:27:40;100887.09;;;25.68;46.05
22333;BME280;11334;36.986;-121.936;2022-08-19T02:30:09;100886.63;;;25.38;46.50
22333;BME280;11334;36.986;-121.936;2022-08-19T02:32:36;100891.88;;;25.12;47.23
22333;BME280;11334;36.986;-121.936;2022-08-19T02:35:03;100897.81;;;24.81;47.77
22333;BME280;11334;36.986;-121.936;2022-08-19T02:37:29;100896.38;;;24.63;48.14
22333;BME280;11334;36.986;-121.936;2022-08-19T02:40:14;100897.59;;;24.28;49.17
22333;BME280;11334;36.986;-121.936;2022-08-19T02:42:40;100897.63;;;24.05;49.92
22333;BME280;11334;36.986;-121.936;2022-08-19T02:45:08;100907.06;;;23.91;50.68
22333;BME280;11334;36.986;-121.936;2022-08-19T02:47:35;100907.00;;;23.75;51.06
22333;BME280;11334;36.986;-121.936;2022-08-19T02:50:03;100912.06;;;23.60;51.33
22333;BME280;11334;36.986;-121.936;2022-08-19T02:52:31;100908.50;;;23.48;51.38
22333;BME280;11334;36.986;-121.936;2022-08-19T02:54:57;100903.44;;;23.29;52.22
22333;BME280;11334;36.986;-121.936;2022-08-19T02:57:24;100912.72;;;23.11;53.05
22333;BME280;11334;36.986;-121.936;2022-08-19T02:59:50;100916.81;;;23.02;53.31
22333;BME280;11334;36.986;-121.936;2022-08-19T03:02:16;100925.34;;;22.87;53.44
22333;BME280;11334;36.986;-121.936;2022-08-19T03:04:43;100926.47;;;22.80;54.00
22333;BME280;11334;36.986;-121.936;2022-08-19T03:07:12;100919.63;;;22.66;53.79
22333;BME280;11334;36.986;-121.936;2022-08-19T03:09:39;100930.25;;;22.50;54.57
22333;BME280;11334;36.986;-121.936;2022-08-19T03:12:05;100933.47;;;22.41;54.89
22333;BME280;11334;36.986;-121.936;2022-08-19T03:14:33;100938.31;;;22.39;54.85
22333;BME280;11334;36.986;-121.936;2022-08-19T03:16:59;100938.69;;;22.24;55.31
22333;BME280;11334;36.986;-121.936;2022-08-19T03:19:26;100946.50;;;22.15;55.81
22333;BME280;11334;36.986;-121.936;2022-08-19T03:21:53;100950.38;;;22.01;56.16
22333;BME280;11334;36.986;-121.936;2022-08-19T03:24:21;100945.13;;;21.88;56.67
22333;BME280;11334;36.986;-121.936;2022-08-19T03:26:51;100942.06;;;21.85;56.64
22333;BME280;11334;36.986;-121.936;2022-08-19T03:29:18;100954.78;;;21.78;56.86
22333;BME280;11334;36.986;-121.936;2022-08-19T03:31:45;100954.22;;;21.69;57.22
22333;BME280;11334;36.986;-121.936;2022-08-19T03:34:14;100954.16;;;21.58;57.66
22333;BME280;11334;36.986;-121.936;2022-08-19T03:36:40;100955.47;;;21.49;58.11
22333;BME280;11334;36.986;-121.936;2022-08-19T03:39:06;100946.63;;;21.42;58.14
22333;BME280;11334;36.986;-121.936;2022-08-19T03:41:38;100957.69;;;21.34;58.47
22333;BME280;11334;36.986;-121.936;2022-08-19T03:44:05;100947.75;;;21.35;58.41
22333;BME280;11334;36.986;-121.936;2022-08-19T03:46:32;100952.53;;;21.26;58.52
22333;BME280;11334;36.986;-121.936;2022-08-19T03:49:00;100956.78;;;21.16;58.92
22333;BME280;11334;36.986;-121.936;2022-08-19T03:51:32;100952.91;;;21.06;59.34
22333;BME280;11334;36.986;-121.936;2022-08-19T03:54:02;100950.22;;;21.06;59.17
22333;BME280;11334;36.986;-121.936;2022-08-19T03:56:29;100951.06;;;21.00;59.43
22333;BME280;11334;36.986;-121.936;2022-08-19T03:58:57;100956.53;;;20.93;59.85
22333;BME280;11334;36.986;-121.936;2022-08-19T04:01:26;100956.34;;;20.89;60.20
22333;BME280;11334;36.986;-121.936;2022-08-19T04:03:55;100950.72;;;20.90;59.84
22333;BME280;11334;36.986;-121.936;2022-08-19T04:06:27;100948.31;;;20.82;60.16
22333;BME280;11334;36.986;-121.936;2022-08-19T04:08:55;100950.44;;;20.74;60.47
22333;BME280;11334;36.986;-121.936;2022-08-19T04:11:33;100948.41;;;20.69;60.55
22333;BME280;11334;36.986;-121.936;2022-08-19T04:14:00;100944.28;;;20.60;60.70
22333;BME280;11334;36.986;-121.936;2022-08-19T04:16:27;100950.09;;;20.64;60.70
22333;BME280;11334;36.986;-121.936;2022-08-19T04:18:56;100948.03;;;20.53;61.02
22333;BME280;11334;36.986;-121.936;2022-08-19T04:21:25;100948.66;;;20.55;61.03
22333;BME280;11334;36.986;-121.936;2022-08-19T04:23:53;100957.34;;;20.51;61.29
22333;BME280;11334;36.986;-121.936;2022-08-19T04:26:27;100960.50;;;20.48;61.29
22333;BME280;11334;36.986;-121.936;2022-08-19T04:28:54;100961.78;;;20.39;61.37
22333;BME280;11334;36.986;-121.936;2022-08-19T04:31:24;100965.50;;;20.38;61.70
22333;BME280;11334;36.986;-121.936;2022-08-19T04:33:56;100976.50;;;20.36;61.65
22333;BME280;11334;36.986;-121.936;2022-08-19T04:36:28;100971.13;;;20.36;61.84
22333;BME280;11334;36.986;-121.936;2022-08-19T04:38:57;100963.50;;;20.27;62.02
22333;BME280;11334;36.986;-121.936;2022-08-19T04:41:25;100958.13;;;20.21;62.45
22333;BME280;11334;36.986;-121.936;2022-08-19T04:44:10;100963.31;;;20.16;62.42
22333;BME280;11334;36.986;-121.936;2022-08-19T04:46:37;100953.00;;;20.13;62.43
22333;BME280;11334;36.986;-121.936;2022-08-19T04:49:05;100956.72;;;20.12;62.52
22333;BME280;11334;36.986;-121.936;2022-08-19T04:51:33;100956.50;;;20.13;62.43
22333;BME280;11334;36.986;-121.936;2022-08-19T04:54:01;100961.69;;;20.08;62.13
22333;BME280;11334;36.986;-121.936;2022-08-19T04:56:28;100963.16;;;20.04;62.04
22333;BME280;11334;36.986;-121.936;2022-08-19T04:58:55;100964.00;;;19.98;62.10
22333;BME280;11334;36.986;-121.936;2022-08-19T05:01:28;100961.13;;;19.94;62.25
22333;BME280;11334;36.986;-121.936;2022-08-19T05:03:55;100964.66;;;19.88;62.46
22333;BME280;11334;36.986;-121.936;2022-08-19T05:06:23;100967.97;;;19.83;62.02
22333;BME280;11334;36.986;-121.936;2022-08-19T05:08:51;100973.34;;;19.83;61.97
22333;BME280;11334;36.986;-121.936;2022-08-19T05:11:21;100966.09;;;19.71;62.40
22333;BME280;11334;36.986;-121.936;2022-08-19T05:13:48;100969.03;;;19.69;62.29
22333;BME280;11334;36.986;-121.936;2022-08-19T05:16:17;100963.03;;;19.67;62.10
22333;BME280;11334;36.986;-121.936;2022-08-19T05:18:44;100966.56;;;19.55;62.53
22333;BME280;11334;36.986;-121.936;2022-08-19T05:21:28;100971.09;;;19.48;62.74
22333;BME280;11334;36.986;-121.936;2022-08-19T05:24:14;100969.66;;;19.46;62.62
22333;BME280;11334;36.986;-121.936;2022-08-19T05:26:43;100971.31;;;19.40;62.95
22333;BME280;11334;36.986;-121.936;2022-08-19T05:29:13;100971.13;;;19.35;62.73
22333;BME280;11334;36.986;-121.936;2022-08-19T05:31:40;100966.78;;;19.28;63.45
22333;BME280;11334;36.986;-121.936;2022-08-19T05:34:07;100964.28;;;19.27;63.30
22333;BME280;11334;36.986;-121.936;2022-08-19T05:36:37;100963.66;;;19.25;63.41
22333;BME280;11334;36.986;-121.936;2022-08-19T05:39:18;100959.31;;;19.17;63.48
22333;BME280;11334;36.986;-121.936;2022-08-19T05:41:49;100963.88;;;19.17;63.62
22333;BME280;11334;36.986;-121.936;2022-08-19T05:44:17;100962.63;;;19.06;63.92
22333;BME280;11334;36.986;-121.936;2022-08-19T05:46:44;100963.84;;;19.04;64.09
22333;BME280;11334;36.986;-121.936;2022-08-19T05:49:13;100957.22;;;19.00;63.81
22333;BME280;11334;36.986;-121.936;2022-08-19T05:51:42;100957.22;;;19.00;63.93
22333;BME280;11334;36.986;-121.936;2022-08-19T05:54:08;100959.72;;;18.95;64.06
22333;BME280;11334;36.986;-121.936;2022-08-19T05:56:37;100958.03;;;18.88;64.51
22333;BME280;11334;36.986;-121.936;2022-08-19T05:59:05;100962.81;;;18.92;64.22
22333;BME280;11334;36.986;-121.936;2022-08-19T06:01:35;100954.69;;;18.79;64.56
22333;BME280;11334;36.986;-121.936;2022-08-19T06:04:02;100949.13;;;18.81;64.56
22333;BME280;11334;36.986;-121.936;2022-08-19T06:06:29;100953.06;;;18.78;64.76
22333;BME280;11334;36.986;-121.936;2022-08-19T06:08:55;100952.63;;;18.75;64.53
22333;BME280;11334;36.986;-121.936;2022-08-19T06:11:34;100949.31;;;18.67;64.60
22333;BME280;11334;36.986;-121.936;2022-08-19T06:14:05;100955.50;;;18.61;64.54
22333;BME280;11334;36.986;-121.936;2022-08-19T06:16:35;100956.50;;;18.60;64.72
22333;BME280;11334;36.986;-121.936;2022-08-19T06:19:05;100954.66;;;18.60;64.36
22333;BME280;11334;36.986;-121.936;2022-08-19T06:21:33;100947.00;;;18.51;64.85
22333;BME280;11334;36.986;-121.936;2022-08-19T06:24:00;100941.44;;;18.46;64.60
22333;BME280;11334;36.986;-121.936;2022-08-19T06:26:27;100938.50;;;18.41;64.64
22333;BME280;11334;36.986;-121.936;2022-08-19T06:28:53;100940.97;;;18.36;64.78
22333;BME280;11334;36.986;-121.936;2022-08-19T06:31:22;100940.13;;;18.35;64.83
22333;BME280;11334;36.986;-121.936;2022-08-19T06:33:49;100935.41;;;18.37;65.23
22333;BME280;11334;36.986;-121.936;2022-08-19T06:36:21;100933.34;;;18.39;65.32
22333;BME280;11334;36.986;-121.936;2022-08-19T06:38:47;100926.28;;;18.32;65.37
22333;BME280;11334;36.986;-121.936;2022-08-19T06:41:13;100925.25;;;18.27;65.86
22333;BME280;11334;36.986;-121.936;2022-08-19T06:43:39;100934.34;;;18.32;65.76
22333;BME280;11334;36.986;-121.936;2022-08-19T06:46:13;100931.84;;;18.31;65.35
22333;BME280;11334;36.986;-121.936;2022-08-19T06:48:40;100930.63;;;18.27;65.26
22333;BME280;11334;36.986;-121.936;2022-08-19T06:51:07;100932.03;;;18.23;65.18
22333;BME280;11334;36.986;-121.936;2022-08-19T06:53:33;100928.31;;;18.17;65.47
22333;BME280;11334;36.986;-121.936;2022-08-19T06:56:00;100929.13;;;18.11;65.69
22333;BME280;11334;36.986;-121.936;2022-08-19T06:58:31;100930.13;;;18.04;65.76
22333;BME280;11334;36.986;-121.936;2022-08-19T07:01:02;100935.59;;;17.96;66.49
22333;BME280;11334;36.986;-121.936;2022-08-19T07:03:31;100936.00;;;17.93;66.36
22333;BME280;11334;36.986;-121.936;2022-08-19T07:06:06;100935.81;;;17.95;66.72
22333;BME280;11334;36.986;-121.936;2022-08-19T07:08:35;100934.13;;;17.94;66.55
22333;BME280;11334;36.986;-121.936;2022-08-19T07:11:13;100934.78;;;17.96;66.36
22333;BME280;11334;36.986;-121.936;2022-08-19T07:13:40;100937.44;;;17.96;65.69
22333;BME280;11334;36.986;-121.936;2022-08-19T07:16:14;100940.53;;;17.93;65.86
22333;BME280;11334;36.986;-121.936;2022-08-19T07:18:41;100935.97;;;17.87;66.36
22333;BME280;11334;36.986;-121.936;2022-08-19T07:21:19;100939.88;;;17.84;66.28
22333;BME280;11334;36.986;-121.936;2022-08-19T07:23:46;100941.69;;;17.77;66.50
22333;BME280;11334;36.986;-121.936;2022-08-19T07:26:16;100934.66;;;17.70;66.88
22333;BME280;11334;36.986;-121.936;2022-08-19T07:28:43;100942.22;;;17.67;66.61
22333;BME280;11334;36.986;-121.936;2022-08-19T07:31:15;100940.41;;;17.67;66.82
22333;BME280;11334;36.986;-121.936;2022-08-19T07:33:45;100936.69;;;17.68;66.93
22333;BME280;11334;36.986;-121.936;2022-08-19T07:36:13;100946.19;;;17.71;67.01
22333;BME280;11334;36.986;-121.936;2022-08-19T07:38:42;100942.69;;;17.70;67.38
22333;BME280;11334;36.986;-121.936;2022-08-19T07:41:11;100944.31;;;17.65;67.94
22333;BME280;11334;36.986;-121.936;2022-08-19T07:43:38;100934.66;;;17.70;68.12
22333;BME280;11334;36.986;-121.936;2022-08-19T07:46:05;100942.69;;;17.70;68.58
22333;BME280;11334;36.986;-121.936;2022-08-19T07:48:32;100936.53;;;17.76;68.67
22333;BME280;11334;36.986;-121.936;2022-08-19T07:51:04;100939.41;;;17.74;68.63
22333;BME280;11334;36.986;-121.936;2022-08-19T07:53:31;100940.66;;;17.78;69.41
22333;BME280;11334;36.986;-121.936;2022-08-19T07:56:02;100941.34;;;17.87;69.14
22333;BME280;11334;36.986;-121.936;2022-08-19T07:58:35;100940.50;;;17.86;69.55
22333;BME280;11334;36.986;-121.936;2022-08-19T08:01:04;100938.25;;;17.90;69.49
22333;BME280;11334;36.986;-121.936;2022-08-19T08:03:31;100933.91;;;17.89;70.07
22333;BME280;11334;36.986;-121.936;2022-08-19T08:06:16;100931.03;;;17.90;70.13
22333;BME280;11334;36.986;-121.936;2022-08-19T08:09:03;100929.41;;;17.96;70.16
22333;BME280;11334;36.986;-121.936;2022-08-19T08:11:55;100920.72;;;17.94;70.55
22333;BME280;11334;36.986;-121.936;2022-08-19T08:14:41;100909.41;;;17.98;70.27
22333;BME280;11334;36.986;-121.936;2022-08-19T08:17:10;100915.00;;;18.03;70.45
22333;BME280;11334;36.986;-121.936;2022-08-19T08:19:38;100918.50;;;17.97;70.69
22333;BME280;11334;36.986;-121.936;2022-08-19T08:22:07;100909.00;;;18.01;70.55
22333;BME280;11334;36.986;-121.936;2022-08-19T08:24:54;100902.44;;;18.03;70.48
22333;BME280;11334;36.986;-121.936;2022-08-19T08:27:24;100897.47;;;18.01;70.77
22333;BME280;11334;36.986;-121.936;2022-08-19T08:29:51;100899.50;;;17.99;70.89
22333;BME280;11334;36.986;-121.936;2022-08-19T08:32:17;100898.50;;;18.00;70.86
22333;BME280;11334;36.986;-121.936;2022-08-19T08:34:43;100891.09;;;18.02;70.64
22333;BME280;11334;36.986;-121.936;2022-08-19T08:37:10;100901.19;;;18.00;70.71
22333;BME280;11334;36.986;-121.936;2022-08-19T08:39:36;100896.22;;;18.03;70.56
22333;BME280;11334;36.986;-121.936;2022-08-19T08:42:27;100904.69;;;18.00;70.27
22333;BME280;11334;36.986;-121.936;2022-08-19T08:45:00;100895.59;;;17.95;70.60
22333;BME280;11334;36.986;-121.936;2022-08-19T08:47:38;100895.38;;;17.90;70.46
22333;BME280;11334;36.986;-121.936;2022-08-19T08:50:21;100896.19;;;17.90;70.28
22333;BME280;11334;36.986;-121.936;2022-08-19T08:52:51;100895.56;;;17.88;70.34
22333;BME280;11334;36.986;-121.936;2022-08-19T08:55:22;100885.88;;;17.87;70.13
22333;BME280;11334;36.986;-121.936;2022-08-19T09:00:37;100879.47;;;17.88;70.03
22333;BME280;11334;36.986;-121.936;2022-08-19T09:03:09;100880.69;;;17.86;69.66
22333;BME280;11334;36.986;-121.936;2022-08-19T09:11:08;100874.84;;;17.70;70.14
22333;BME280;11334;36.986;-121.936;2022-08-19T09:16:22;100870.91;;;17.66;70.45
22333;BME280;11334;36.986;-121.936;2022-08-19T09:18:55;100873.16;;;17.62;70.56
22333;BME280;11334;36.986;-121.936;2022-08-19T09:21:24;100869.66;;;17.62;70.58
22333;BME280;11334;36.986;-121.936;2022-08-19T09:23:52;100866.53;;;17.58;71.06
22333;BME280;11334;36.986;-121.936;2022-08-19T09:26:20;100871.50;;;17.61;70.75
22333;BME280;11334;36.986;-121.936;2022-08-19T09:28:50;100863.66;;;17.60;70.78
22333;BME280;11334;36.986;-121.936;2022-08-19T09:31:23;100865.09;;;17.56;70.51
22333;BME280;11334;36.986;-121.936;2022-08-19T09:33:50;100860.94;;;17.53;70.46
22333;BME280;11334;36.986;-121.936;2022-08-19T09:36:20;100859.72;;;17.56;70.34
22333;BME280;11334;36.986;-121.936;2022-08-19T09:38:48;100852.91;;;17.53;70.10
22333;BME280;11334;36.986;-121.936;2022-08-19T09:41:16;100854.13;;;17.51;70.37
22333;BME280;11334;36.986;-121.936;2022-08-19T09:43:46;100856.56;;;17.46;70.01
22333;BME280;11334;36.986;-121.936;2022-08-19T09:46:13;100854.94;;;17.45;69.39
22333;BME280;11334;36.986;-121.936;2022-08-19T09:48:42;100849.75;;;17.43;69.11
22333;BME280;11334;36.986;-121.936;2022-08-19T09:51:15;100857.16;;;17.41;68.72
22333;BME280;11334;36.986;-121.936;2022-08-19T09:53:43;100863.97;;;17.38;68.73
22333;BME280;11334;36.986;-121.936;2022-08-19T09:56:10;100866.63;;;17.38;68.34
22333;BME280;11334;36.986;-121.936;2022-08-19T09:58:37;100869.50;;;17.36;68.44
22333;BME280;11334;36.986;-121.936;2022-08-19T10:01:05;100864.53;;;17.33;69.41
22333;BME280;11334;36.986;-121.936;2022-08-19T10:03:34;100866.34;;;17.26;70.12
22333;BME280;11334;36.986;-121.936;2022-08-19T10:06:03;100870.47;;;17.29;70.48
22333;BME280;11334;36.986;-121.936;2022-08-19T10:08:32;100867.56;;;17.24;71.15
22333;BME280;11334;36.986;-121.936;2022-08-19T10:11:00;100866.34;;;17.26;71.60
22333;BME280;11334;36.986;-121.936;2022-08-19T10:13:29;100879.72;;;17.26;71.72
22333;BME280;11334;36.986;-121.936;2022-08-19T10:16:02;100880.56;;;17.27;72.31
22333;BME280;11334;36.986;-121.936;2022-08-19T10:18:28;100883.63;;;17.24;72.20
22333;BME280;11334;36.986;-121.936;2022-08-19T10:21:08;100866.56;;;17.25;72.27
22333;BME280;11334;36.986;-121.936;2022-08-19T10:23:36;100871.06;;;17.24;72.11
22333;BME280;11334;36.986;-121.936;2022-08-19T10:26:04;100870.25;;;17.24;72.18
22333;BME280;11334;36.986;-121.936;2022-08-19T10:28:33;100863.44;;;17.21;71.92
22333;BME280;11334;36.986;-121.936;2022-08-19T10:31:17;100857.66;;;17.24;71.93
22333;BME280;11334;36.986;-121.936;2022-08-19T10:33:46;100858.72;;;17.23;72.06
22333;BME280;11334;36.986;-121.936;2022-08-19T10:36:19;100859.53;;;17.24;72.50
22333;BME280;11334;36.986;-121.936;2022-08-19T10:38:47;100860.75;;;17.21;72.39
22333;BME280;11334;36.986;-121.936;2022-08-19T10:41:20;100858.66;;;17.17;72.71
22333;BME280;11334;36.986;-121.936;2022-08-19T10:43:53;100852.69;;;17.15;72.69
22333;BME280;11334;36.986;-121.936;2022-08-19T10:46:21;100850.00;;;17.15;72.76
22333;BME280;11334;36.986;-121.936;2022-08-19T10:48:49;100847.50;;;17.13;73.06
22333;BME280;11334;36.986;-121.936;2022-08-19T10:51:16;100854.97;;;17.18;72.52
22333;BME280;11334;36.986;-121.936;2022-08-19T10:54:01;100859.03;;;17.14;72.95
22333;BME280;11334;36.986;-121.936;2022-08-19T10:56:29;100866.69;;;17.17;72.99
22333;BME280;11334;36.986;-121.936;2022-08-19T10:59:14;100856.59;;;17.12;73.30
22333;BME280;11334;36.986;-121.936;2022-08-19T11:01:42;100857.41;;;17.13;73.06
22333;BME280;11334;36.986;-121.936;2022-08-19T11:04:09;100858.22;;;17.13;73.13
22333;BME280;11334;36.986;-121.936;2022-08-19T11:06:37;100864.00;;;17.17;73.11
22333;BME280;11334;36.986;-121.936;2022-08-19T11:09:04;100859.09;;;17.20;73.17
22333;BME280;11334;36.986;-121.936;2022-08-19T11:11:31;100854.75;;;17.19;73.43
22333;BME280;11334;36.986;-121.936;2022-08-19T11:13:58;100851.47;;;17.17;73.55
22333;BME280;11334;36.986;-121.936;2022-08-19T11:16:26;100844.44;;;17.16;73.39
22333;BME280;11334;36.986;-121.936;2022-08-19T11:18:57;100851.47;;;17.17;73.52
22333;BME280;11334;36.986;-121.936;2022-08-19T11:21:30;100852.69;;;17.15;73.79
22333;BME280;11334;36.986;-121.936;2022-08-19T11:24:02;100849.16;;;17.14;73.94
22333;BME280;11334;36.986;-121.936;2022-08-19T11:26:30;100852.06;;;17.13;74.25
22333;BME280;11334;36.986;-121.936;2022-08-19T11:28:57;100852.69;;;17.15;74.13
22333;BME280;11334;36.986;-121.936;2022-08-19T11:31:27;100844.66;;;17.15;73.99
22333;BME280;11334;36.986;-121.936;2022-08-19T11:33:57;100851.00;;;17.14;74.31
22333;BME280;11334;36.986;-121.936;2022-08-19T11:36:23;100851.97;;;17.07;74.62
22333;BME280;11334;36.986;-121.936;2022-08-19T11:38:50;100855.72;;;17.12;74.45
22333;BME280;11334;36.986;-121.936;2022-08-19T11:41:19;100866.06;;;17.15;74.70
22333;BME280;11334;36.986;-121.936;2022-08-19T11:43:46;100854.50;;;17.14;74.37
22333;BME280;11334;36.986;-121.936;2022-08-19T11:46:14;100838.25;;;17.16;74.63
22333;BME280;11334;36.986;-121.936;2022-08-19T11:48:41;100842.97;;;17.14;75.04
22333;BME280;11334;36.986;-121.936;2022-08-19T11:51:11;100847.94;;;17.17;75.51
22333;BME280;11334;36.986;-121.936;2022-08-19T11:53:38;100839.09;;;17.16;75.22
22333;BME280;11334;36.986;-121.936;2022-08-19T11:56:06;100844.66;;;17.15;75.25
22333;BME280;11334;36.986;-121.936;2022-08-19T11:58:33;100836.81;;;17.13;75.31
22333;BME280;11334;36.986;-121.936;2022-08-19T12:01:00;100841.53;;;17.11;75.29
22333;BME280;11334;36.986;-121.936;2022-08-19T12:03:26;100841.34;;;17.13;75.56
22333;BME280;11334;36.986;-121.936;2022-08-19T12:05:53;100849.78;;;17.16;75.30
22333;BME280;11334;36.986;-121.936;2022-08-19T12:08:20;100854.97;;;17.18;75.37
22333;BME280;11334;36.986;-121.936;2022-08-19T12:10:46;100850.63;;;17.17;75.29
22333;BME280;11334;36.986;-121.936;2022-08-19T12:13:13;100851.25;;;17.19;75.17
22333;BME280;11334;36.986;-121.936;2022-08-19T12:15:46;100854.97;;;17.18;75.31
22333;BME280;11334;36.986;-121.936;2022-08-19T12:18:12;100848.19;;;17.22;75.28
22333;BME280;11334;36.986;-121.936;2022-08-19T12:20:43;100844.69;;;17.21;75.46
22333;BME280;11334;36.986;-121.936;2022-08-19T12:23:10;100843.06;;;17.27;75.48
22333;BME280;11334;36.986;-121.936;2022-08-19T12:25:37;100841.03;;;17.29;75.37
22333;BME280;11334;36.986;-121.936;2022-08-19T12:28:03;100843.91;;;17.27;75.55
22333;BME280;11334;36.986;-121.936;2022-08-19T12:30:29;100847.81;;;17.25;75.65
22333;BME280;11334;36.986;-121.936;2022-08-19T12:32:55;100845.94;;;17.25;75.17
22333;BME280;11334;36.986;-121.936;2022-08-19T12:35:22;100836.25;;;17.24;75.48
22333;BME280;11334;36.986;-121.936;2022-08-19T12:37:48;100847.19;;;17.23;75.44
22333;BME280;11334;36.986;-121.936;2022-08-19T12:40:15;100848.78;;;17.17;75.75
22333;BME280;11334;36.986;-121.936;2022-08-19T12:42:43;100841.75;;;17.16;75.70